createdAt,value
2022-08-01T00:03:09.130Z,97.83
2022-08-01T00:13:12.516Z,97.13
2022-08-01T00:23:17.224Z,98.87
2022-08-01T00:33:20.568Z,97.73
2022-08-01T00:43:25.300Z,98.80
2022-08-01T00:53:28.879Z,96.57
2022-08-01T01:03:59.666Z,102.30
2022-08-01T01:14:12.367Z,95.13
2022-08-01T01:24:33.308Z,97.27
2022-08-01T01:34:42.063Z,97.37
2022-08-01T01:44:47.072Z,96.33
2022-08-01T01:54:54.074Z,95.27
2022-08-01T02:04:59.679Z,100.50
2022-08-01T02:15:06.577Z,100.67
2022-08-01T02:25:20.189Z,96.63
2022-08-01T02:35:29.401Z,96.50
2022-08-01T02:45:36.124Z,96.07
2022-08-01T02:55:41.908Z,94.60
2022-08-01T03:05:46.261Z,96.47
2022-08-01T03:15:52.107Z,95.17
2022-08-01T03:25:56.190Z,97.13
2022-08-01T03:36:04.819Z,94.40
2022-08-01T03:46:12.302Z,90.30
2022-08-01T03:56:21.478Z,94.77
2022-08-01T04:06:24.807Z,97.70
2022-08-01T04:16:29.677Z,96.83
2022-08-01T04:26:34.618Z,97.40
2022-08-01T04:36:42.920Z,103.13
2022-08-01T04:46:49.462Z,92.93
2022-08-01T04:56:56.704Z,99.20
2022-08-01T05:07:00.078Z,100.50
2022-08-01T05:17:08.539Z,104.63
2022-08-01T05:27:13.646Z,101.73
2022-08-01T05:37:21.050Z,102.57
2022-08-01T05:47:24.459Z,105.50
2022-08-01T05:57:29.332Z,102.83
2022-08-01T06:07:32.930Z,107.87
2022-08-01T06:17:37.726Z,103.87
2022-08-01T06:27:41.073Z,104.70
2022-08-01T06:37:47.712Z,104.63
2022-08-01T06:47:51.153Z,100.03
2022-08-01T06:57:56.077Z,104.60
2022-08-01T07:07:59.923Z,98.77
2022-08-01T07:18:05.265Z,98.63
2022-08-01T07:28:08.788Z,97.10
2022-08-01T07:38:13.873Z,103.83
2022-08-01T07:48:17.325Z,105.23
2022-08-01T07:58:22.024Z,111.23
2022-08-01T08:08:25.428Z,117.77
2022-08-01T08:18:30.220Z,118.57
2022-08-01T08:28:33.683Z,117.82
2022-08-01T08:38:38.443Z,122.70
2022-08-01T08:48:44.587Z,125.68
2022-08-01T08:58:49.881Z,128.82
2022-08-01T09:08:53.405Z,130.50
2022-08-01T09:19:16.026Z,128.45
2022-08-01T09:29:37.444Z,127.38
2022-08-01T09:39:44.365Z,127.47
2022-08-01T09:49:50.471Z,133.60
2022-08-01T10:00:00.613Z,127.97
2022-08-01T10:10:12.975Z,128.48
2022-08-01T10:20:28.935Z,130.30
2022-08-01T10:30:34.220Z,129.98
2022-08-01T10:40:40.139Z,131.13
2022-08-01T10:50:48.392Z,123.60
2022-08-01T11:01:33.313Z,125.45
2022-08-01T11:12:06.307Z,122.95
2022-08-01T11:22:11.215Z,124.35
2022-08-01T11:32:31.241Z,127.65
2022-08-01T11:42:48.016Z,128.15
2022-08-01T11:53:00.990Z,128.40
2022-08-01T12:03:08.639Z,126.43
2022-08-01T12:13:12.007Z,124.53
2022-08-01T12:23:18.933Z,124.07
2022-08-01T12:33:23.345Z,122.15
2022-08-01T12:43:29.435Z,121.35
2022-08-01T12:53:40.539Z,116.20
2022-08-01T13:04:01.177Z,122.53
2022-08-01T13:14:04.682Z,117.53
2022-08-01T13:24:13.320Z,114.37
2022-08-01T13:34:17.132Z,117.50
2022-08-01T13:44:22.365Z,116.37
2022-08-01T13:54:25.842Z,116.30
2022-08-01T14:04:30.525Z,119.82
2022-08-01T14:14:34.019Z,117.50
2022-08-01T14:24:38.983Z,114.60
2022-08-01T14:34:44.374Z,115.75
2022-08-01T14:44:49.974Z,120.63
2022-08-01T14:54:53.613Z,116.38
2022-08-01T15:04:58.327Z,117.90
2022-08-01T15:15:01.734Z,116.30
2022-08-01T15:25:07.781Z,125.07
2022-08-01T15:35:12.185Z,110.17
2022-08-01T15:45:45.836Z,117.32
2022-08-01T15:55:52.018Z,114.50
2022-08-01T16:05:58.114Z,112.27
2022-08-01T16:16:02.971Z,119.40
2022-08-01T16:26:15.538Z,114.80
2022-08-01T16:36:31.608Z,115.43
2022-08-01T16:46:36.309Z,116.53
2022-08-01T16:56:39.626Z,112.37
2022-08-01T17:06:45.552Z,116.23
2022-08-01T17:16:49.003Z,114.07
2022-08-01T17:26:53.862Z,114.70
2022-08-01T17:36:57.221Z,113.17
2022-08-01T17:47:01.958Z,113.93
2022-08-01T17:57:05.732Z,110.30
2022-08-01T18:07:13.504Z,108.30
2022-08-01T18:17:17.330Z,106.73
2022-08-01T18:27:22.082Z,106.27
2022-08-01T18:37:27.505Z,103.37
2022-08-01T18:47:37.295Z,100.33
2022-08-01T18:57:42.780Z,104.37
2022-08-01T19:08:06.089Z,102.47
2022-08-01T19:18:10.689Z,102.40
2022-08-01T19:28:18.001Z,100.20
2022-08-01T19:38:21.573Z,103.57
2022-08-01T19:48:26.687Z,104.80
2022-08-01T19:58:30.958Z,104.17
2022-08-01T20:08:36.740Z,103.27
2022-08-01T20:18:41.529Z,104.73
2022-08-01T20:28:48.989Z,101.70
2022-08-01T20:38:55.613Z,101.07
2022-08-01T20:49:01.320Z,106.03
2022-08-01T20:59:39.918Z,103.27
2022-08-01T21:09:39.882Z,101.03
2022-08-01T21:19:46.958Z,97.87
2022-08-01T21:29:53.924Z,100.80
2022-08-01T21:39:59.322Z,101.37
2022-08-01T21:50:50.339Z,103.47
2022-08-01T22:01:02.170Z,106.57
2022-08-01T22:11:09.236Z,98.10
2022-08-01T22:21:13.912Z,104.00
2022-08-01T22:31:19.672Z,99.23
2022-08-01T22:41:31.027Z,104.50
2022-08-01T22:52:05.914Z,104.60
2022-08-01T23:02:11.313Z,105.00
2022-08-01T23:12:19.532Z,108.03
2022-08-01T23:22:23.716Z,103.50
2022-08-01T23:32:28.393Z,98.30
2022-08-01T23:42:31.943Z,101.20
2022-08-01T23:52:47.290Z,103.77
